sensor_id;sensor_type;location;lat;lon;timestamp;temperature;humidity
70851;DHT22;58475;49.662;9.636;2022-09-01T00:01:51;14.41;83.35
70851;DHT22;58475;49.662;9.636;2022-09-01T00:04:22;14.61;82.58
70851;DHT22;58475;49.662;9.636;2022-09-01T00:06:50;14.47;83.49
70851;DHT22;58475;49.662;9.636;2022-09-01T00:09:17;14.63;82.88
70851;DHT22;58475;49.662;9.636;2022-09-01T00:11:47;14.68;82.74
70851;DHT22;58475;49.662;9.636;2022-09-01T00:14:13;14.48;83.04
70851;DHT22;58475;49.662;9.636;2022-09-01T00:16:39;14.33;83.38
70851;DHT22;58475;49.662;9.636;2022-09-01T00:19:05;14.33;82.93
70851;DHT22;58475;49.662;9.636;2022-09-01T00:21:41;14.14;83.54
70851;DHT22;58475;49.662;9.636;2022-09-01T00:24:07;14.37;83.80
70851;DHT22;58475;49.662;9.636;2022-09-01T00:26:33;14.42;83.09
70851;DHT22;58475;49.662;9.636;2022-09-01T00:28:59;14.20;83.63
70851;DHT22;58475;49.662;9.636;2022-09-01T00:31:24;14.33;83.70
70851;DHT22;58475;49.662;9.636;2022-09-01T00:33:50;14.47;82.94
70851;DHT22;58475;49.662;9.636;2022-09-01T00:36:17;14.47;83.02
70851;DHT22;58475;49.662;9.636;2022-09-01T00:38:42;14.45;83.41
70851;DHT22;58475;49.662;9.636;2022-09-01T00:41:08;14.63;82.32
70851;DHT22;58475;49.662;9.636;2022-09-01T00:43:49;14.58;82.39
70851;DHT22;58475;49.662;9.636;2022-09-01T00:46:22;14.63;83.01
70851;DHT22;58475;49.662;9.636;2022-09-01T00:48:52;14.63;82.40
70851;DHT22;58475;49.662;9.636;2022-09-01T00:51:18;14.58;82.96
70851;DHT22;58475;49.662;9.636;2022-09-01T00:53:44;14.79;81.99
70851;DHT22;58475;49.662;9.636;2022-09-01T00:56:10;14.69;82.25
70851;DHT22;58475;49.662;9.636;2022-09-01T00:58:37;14.82;81.36
70851;DHT22;58475;49.662;9.636;2022-09-01T01:01:06;14.85;81.16
70851;DHT22;58475;49.662;9.636;2022-09-01T01:03:31;14.91;81.10
70851;DHT22;58475;49.662;9.636;2022-09-01T01:06:00;14.96;81.45
70851;DHT22;58475;49.662;9.636;2022-09-01T01:08:30;14.93;81.88
70851;DHT22;58475;49.662;9.636;2022-09-01T01:11:10;15.08;81.99
70851;DHT22;58475;49.662;9.636;2022-09-01T01:14:02;14.98;80.83
70851;DHT22;58475;49.662;9.636;2022-09-01T01:16:38;14.99;81.35
70851;DHT22;58475;49.662;9.636;2022-09-01T01:19:28;14.98;81.21
70851;DHT22;58475;49.662;9.636;2022-09-01T01:25:27;15.13;80.06
70851;DHT22;58475;49.662;9.636;2022-09-01T01:30:38;15.16;80.54
70851;DHT22;58475;49.662;9.636;2022-09-01T01:33:05;15.23;80.97
70851;DHT22;58475;49.662;9.636;2022-09-01T01:35:31;15.19;80.09
70851;DHT22;58475;49.662;9.636;2022-09-01T01:37:59;15.35;80.40
70851;DHT22;58475;49.662;9.636;2022-09-01T01:40:27;15.29;80.47
70851;DHT22;58475;49.662;9.636;2022-09-01T01:42:53;15.18;80.53
70851;DHT22;58475;49.662;9.636;2022-09-01T01:45:21;15.20;80.87
70851;DHT22;58475;49.662;9.636;2022-09-01T01:47:48;15.16;80.40
70851;DHT22;58475;49.662;9.636;2022-09-01T01:50:20;14.96;80.64
70851;DHT22;58475;49.662;9.636;2022-09-01T01:52:45;14.89;80.52
70851;DHT22;58475;49.662;9.636;2022-09-01T01:55:11;14.85;80.43
70851;DHT22;58475;49.662;9.636;2022-09-01T01:57:40;14.72;81.17
70851;DHT22;58475;49.662;9.636;2022-09-01T02:00:13;14.78;81.54
70851;DHT22;58475;49.662;9.636;2022-09-01T02:02:45;14.67;80.68
70851;DHT22;58475;49.662;9.636;2022-09-01T02:05:22;14.68;81.21
70851;DHT22;58475;49.662;9.636;2022-09-01T02:07:54;14.69;80.75
70851;DHT22;58475;49.662;9.636;2022-09-01T02:10:23;14.69;81.79
70851;DHT22;58475;49.662;9.636;2022-09-01T02:12:48;14.71;81.46
70851;DHT22;58475;49.662;9.636;2022-09-01T02:15:14;14.69;80.82
70851;DHT22;58475;49.662;9.636;2022-09-01T02:17:40;14.65;81.01
70851;DHT22;58475;49.662;9.636;2022-09-01T02:20:08;14.77;80.94
70851;DHT22;58475;49.662;9.636;2022-09-01T02:22:34;14.61;81.31
70851;DHT22;58475;49.662;9.636;2022-09-01T02:25:03;14.48;81.29
70851;DHT22;58475;49.662;9.636;2022-09-01T02:27:31;14.54;81.54
70851;DHT22;58475;49.662;9.636;2022-09-01T02:29:59;14.37;81.44
70851;DHT22;58475;49.662;9.636;2022-09-01T02:32:26;14.31;80.87
70851;DHT22;58475;49.662;9.636;2022-09-01T02:34:52;14.31;81.14
70851;DHT22;58475;49.662;9.636;2022-09-01T02:37:26;14.33;81.89
70851;DHT22;58475;49.662;9.636;2022-09-01T02:39:51;14.23;82.23
70851;DHT22;58475;49.662;9.636;2022-09-01T02:42:18;14.33;82.09
70851;DHT22;58475;49.662;9.636;2022-09-01T02:44:48;14.30;81.92
70851;DHT22;58475;49.662;9.636;2022-09-01T02:47:13;14.24;81.74
70851;DHT22;58475;49.662;9.636;2022-09-01T02:49:40;14.33;81.25
70851;DHT22;58475;49.662;9.636;2022-09-01T02:52:07;14.20;81.43
70851;DHT22;58475;49.662;9.636;2022-09-01T02:54:32;14.02;81.94
70851;DHT22;58475;49.662;9.636;2022-09-01T02:56:58;13.80;82.21
70851;DHT22;58475;49.662;9.636;2022-09-01T02:59:26;13.89;82.69
70851;DHT22;58475;49.662;9.636;2022-09-01T03:01:56;13.79;83.15
70851;DHT22;58475;49.662;9.636;2022-09-01T03:04:22;13.68;83.08
70851;DHT22;58475;49.662;9.636;2022-09-01T03:06:48;13.52;83.68
70851;DHT22;58475;49.662;9.636;2022-09-01T03:09:17;13.52;83.58
70851;DHT22;58475;49.662;9.636;2022-09-01T03:11:46;13.42;83.41
70851;DHT22;58475;49.662;9.636;2022-09-01T03:14:13;13.47;84.27
70851;DHT22;58475;49.662;9.636;2022-09-01T03:16:40;13.21;84.34
70851;DHT22;58475;49.662;9.636;2022-09-01T03:19:06;13.18;84.70
70851;DHT22;58475;49.662;9.636;2022-09-01T03:21:34;13.30;84.59
70851;DHT22;58475;49.662;9.636;2022-09-01T03:24:00;13.17;84.75
70851;DHT22;58475;49.662;9.636;2022-09-01T03:26:29;13.20;84.78
70851;DHT22;58475;49.662;9.636;2022-09-01T03:28:55;13.15;85.29
70851;DHT22;58475;49.662;9.636;2022-09-01T03:31:21;13.22;84.90
70851;DHT22;58475;49.662;9.636;2022-09-01T03:33:48;12.99;85.29
70851;DHT22;58475;49.662;9.636;2022-09-01T03:36:21;13.15;85.26
70851;DHT22;58475;49.662;9.636;2022-09-01T03:38:48;13.11;85.40
70851;DHT22;58475;49.662;9.636;2022-09-01T03:41:16;12.97;85.89
70851;DHT22;58475;49.662;9.636;2022-09-01T03:43:43;12.86;86.08
70851;DHT22;58475;49.662;9.636;2022-09-01T03:46:10;12.79;86.78
70851;DHT22;58475;49.662;9.636;2022-09-01T03:48:35;12.96;86.43
70851;DHT22;58475;49.662;9.636;2022-09-01T03:51:01;12.96;86.14
70851;DHT22;58475;49.662;9.636;2022-09-01T03:53:30;13.10;85.40
70851;DHT22;58475;49.662;9.636;2022-09-01T03:55:56;13.03;85.83
70851;DHT22;58475;49.662;9.636;2022-09-01T03:58:23;12.89;85.95
70851;DHT22;58475;49.662;9.636;2022-09-01T04:00:54;12.77;86.31
70851;DHT22;58475;49.662;9.636;2022-09-01T04:03:21;12.89;85.82
70851;DHT22;58475;49.662;9.636;2022-09-01T04:05:49;12.73;86.45
70851;DHT22;58475;49.662;9.636;2022-09-01T04:08:16;12.81;85.71
70851;DHT22;58475;49.662;9.636;2022-09-01T04:10:51;12.72;86.18
70851;DHT22;58475;49.662;9.636;2022-09-01T04:13:33;12.76;85.73
70851;DHT22;58475;49.662;9.636;2022-09-01T04:16:00;12.67;85.50
70851;DHT22;58475;49.662;9.636;2022-09-01T04:18:25;12.64;85.65
70851;DHT22;58475;49.662;9.636;2022-09-01T04:20:57;12.55;85.86
70851;DHT22;58475;49.662;9.636;2022-09-01T04:23:26;12.46;86.49
70851;DHT22;58475;49.662;9.636;2022-09-01T04:25:56;12.43;86.21
70851;DHT22;58475;49.662;9.636;2022-09-01T04:28:31;12.55;86.06
70851;DHT22;58475;49.662;9.636;2022-09-01T04:31:03;12.53;86.13
70851;DHT22;58475;49.662;9.636;2022-09-01T04:33:36;12.52;86.24
70851;DHT22;58475;49.662;9.636;2022-09-01T04:36:27;12.32;86.63
70851;DHT22;58475;49.662;9.636;2022-09-01T04:38:58;12.26;86.84
70851;DHT22;58475;49.662;9.636;2022-09-01T04:41:28;12.38;86.93
70851;DHT22;58475;49.662;9.636;2022-09-01T04:43:59;12.40;87.03
70851;DHT22;58475;49.662;9.636;2022-09-01T04:46:31;12.48;87.01
70851;DHT22;58475;49.662;9.636;2022-09-01T04:49:01;12.52;86.65
70851;DHT22;58475;49.662;9.636;2022-09-01T04:51:40;12.53;86.76
70851;DHT22;58475;49.662;9.636;2022-09-01T04:54:06;12.31;87.54
70851;DHT22;58475;49.662;9.636;2022-09-01T04:56:37;12.28;87.73
70851;DHT22;58475;49.662;9.636;2022-09-01T04:59:08;12.31;87.27
70851;DHT22;58475;49.662;9.636;2022-09-01T05:01:38;12.24;87.61
70851;DHT22;58475;49.662;9.636;2022-09-01T05:04:13;12.26;87.47
70851;DHT22;58475;49.662;9.636;2022-09-01T05:06:42;12.31;87.55
70851;DHT22;58475;49.662;9.636;2022-09-01T05:09:12;12.49;87.30
70851;DHT22;58475;49.662;9.636;2022-09-01T05:11:48;12.64;87.02
70851;DHT22;58475;49.662;9.636;2022-09-01T05:14:27;12.64;86.69
70851;DHT22;58475;49.662;9.636;2022-09-01T05:16:57;12.73;86.27
70851;DHT22;58475;49.662;9.636;2022-09-01T05:19:24;12.91;85.59
70851;DHT22;58475;49.662;9.636;2022-09-01T05:21:54;13.03;85.29
70851;DHT22;58475;49.662;9.636;2022-09-01T05:24:22;13.07;85.35
70851;DHT22;58475;49.662;9.636;2022-09-01T05:26:55;13.20;84.85
70851;DHT22;58475;49.662;9.636;2022-09-01T05:29:20;13.39;84.13
70851;DHT22;58475;49.662;9.636;2022-09-01T05:31:47;13.45;84.14
70851;DHT22;58475;49.662;9.636;2022-09-01T05:34:14;13.69;83.81
70851;DHT22;58475;49.662;9.636;2022-09-01T05:36:44;13.70;82.81
70851;DHT22;58475;49.662;9.636;2022-09-01T05:39:11;13.79;81.99
70851;DHT22;58475;49.662;9.636;2022-09-01T05:41:38;13.96;81.17
70851;DHT22;58475;49.662;9.636;2022-09-01T05:44:06;14.23;80.17
70851;DHT22;58475;49.662;9.636;2022-09-01T05:46:35;13.92;81.97
70851;DHT22;58475;49.662;9.636;2022-09-01T05:49:01;13.85;81.77
70851;DHT22;58475;49.662;9.636;2022-09-01T05:51:28;14.52;80.76
70851;DHT22;58475;49.662;9.636;2022-09-01T05:53:56;14.50;80.16
70851;DHT22;58475;49.662;9.636;2022-09-01T05:56:25;14.78;79.18
70851;DHT22;58475;49.662;9.636;2022-09-01T05:58:51;15.09;78.15
70851;DHT22;58475;49.662;9.636;2022-09-01T06:01:19;15.56;77.43
70851;DHT22;58475;49.662;9.636;2022-09-01T06:03:53;15.56;76.34
70851;DHT22;58475;49.662;9.636;2022-09-01T06:06:25;15.78;75.32
70851;DHT22;58475;49.662;9.636;2022-09-01T06:08:51;16.21;75.08
70851;DHT22;58475;49.662;9.636;2022-09-01T06:11:19;16.59;74.51
70851;DHT22;58475;49.662;9.636;2022-09-01T06:13:45;16.79;73.73
70851;DHT22;58475;49.662;9.636;2022-09-01T06:16:15;16.88;72.85
70851;DHT22;58475;49.662;9.636;2022-09-01T06:18:42;17.17;72.89
70851;DHT22;58475;49.662;9.636;2022-09-01T06:21:09;17.31;72.29
70851;DHT22;58475;49.662;9.636;2022-09-01T06:23:40;17.48;72.26
70851;DHT22;58475;49.662;9.636;2022-09-01T06:28:44;17.66;71.88
70851;DHT22;58475;49.662;9.636;2022-09-01T06:31:09;17.75;71.04
70851;DHT22;58475;49.662;9.636;2022-09-01T06:33:36;17.68;70.81
70851;DHT22;58475;49.662;9.636;2022-09-01T06:36:03;17.92;70.66
70851;DHT22;58475;49.662;9.636;2022-09-01T06:38:29;18.18;69.86
70851;DHT22;58475;49.662;9.636;2022-09-01T06:41:01;18.38;69.32
70851;DHT22;58475;49.662;9.636;2022-09-01T06:43:30;18.36;69.01
70851;DHT22;58475;49.662;9.636;2022-09-01T06:45:59;18.46;70.04
70851;DHT22;58475;49.662;9.636;2022-09-01T06:48:25;18.84;68.69
70851;DHT22;58475;49.662;9.636;2022-09-01T06:51:01;19.37;67.21
70851;DHT22;58475;49.662;9.636;2022-09-01T06:53:28;19.53;66.62
70851;DHT22;58475;49.662;9.636;2022-09-01T06:55:56;19.77;66.20
70851;DHT22;58475;49.662;9.636;2022-09-01T06:58:21;19.91;64.90
70851;DHT22;58475;49.662;9.636;2022-09-01T07:00:50;20.39;64.90
70851;DHT22;58475;49.662;9.636;2022-09-01T07:03:16;20.96;63.68
70851;DHT22;58475;49.662;9.636;2022-09-01T07:06:04;21.45;62.70
70851;DHT22;58475;49.662;9.636;2022-09-01T07:09:05;21.28;61.42
70851;DHT22;58475;49.662;9.636;2022-09-01T07:11:33;20.73;63.00
70851;DHT22;58475;49.662;9.636;2022-09-01T07:14:03;21.58;61.11
70851;DHT22;58475;49.662;9.636;2022-09-01T07:16:33;22.10;59.74
70851;DHT22;58475;49.662;9.636;2022-09-01T07:19:02;22.09;59.82
70851;DHT22;58475;49.662;9.636;2022-09-01T07:21:30;21.93;58.51
70851;DHT22;58475;49.662;9.636;2022-09-01T07:23:58;21.86;58.34
70851;DHT22;58475;49.662;9.636;2022-09-01T07:26:26;21.81;59.49
70851;DHT22;58475;49.662;9.636;2022-09-01T07:28:54;21.44;59.48
70851;DHT22;58475;49.662;9.636;2022-09-01T07:31:23;21.95;58.21
70851;DHT22;58475;49.662;9.636;2022-09-01T07:33:51;21.55;60.60
70851;DHT22;58475;49.662;9.636;2022-09-01T07:36:18;21.24;61.11
70851;DHT22;58475;49.662;9.636;2022-09-01T07:38:44;20.71;61.75
70851;DHT22;58475;49.662;9.636;2022-09-01T07:41:11;20.52;62.17
70851;DHT22;58475;49.662;9.636;2022-09-01T07:43:58;20.24;63.86
70851;DHT22;58475;49.662;9.636;2022-09-01T07:46:43;20.63;62.69
70851;DHT22;58475;49.662;9.636;2022-09-01T07:49:16;20.71;62.82
70851;DHT22;58475;49.662;9.636;2022-09-01T07:51:43;20.93;62.91
70851;DHT22;58475;49.662;9.636;2022-09-01T07:54:09;21.10;61.97
70851;DHT22;58475;49.662;9.636;2022-09-01T07:56:38;21.69;61.73
70851;DHT22;58475;49.662;9.636;2022-09-01T07:59:04;21.42;61.14
70851;DHT22;58475;49.662;9.636;2022-09-01T08:01:31;21.68;59.53
70851;DHT22;58475;49.662;9.636;2022-09-01T08:03:58;21.61;61.41
70851;DHT22;58475;49.662;9.636;2022-09-01T08:06:26;20.97;61.45
70851;DHT22;58475;49.662;9.636;2022-09-01T08:08:54;20.82;62.85
70851;DHT22;58475;49.662;9.636;2022-09-01T08:11:24;21.64;60.69
70851;DHT22;58475;49.662;9.636;2022-09-01T08:13:53;21.48;60.50
70851;DHT22;58475;49.662;9.636;2022-09-01T08:16:19;21.83;60.39
70851;DHT22;58475;49.662;9.636;2022-09-01T08:18:47;21.81;59.45
70851;DHT22;58475;49.662;9.636;2022-09-01T08:21:23;21.88;59.86
70851;DHT22;58475;49.662;9.636;2022-09-01T08:24:05;22.68;58.39
70851;DHT22;58475;49.662;9.636;2022-09-01T08:26:33;23.46;56.39
70851;DHT22;58475;49.662;9.636;2022-09-01T08:29:00;23.67;55.20
70851;DHT22;58475;49.662;9.636;2022-09-01T08:31:32;24.01;55.02
70851;DHT22;58475;49.662;9.636;2022-09-01T08:34:00;24.31;54.41
70851;DHT22;58475;49.662;9.636;2022-09-01T08:36:26;23.59;54.25
70851;DHT22;58475;49.662;9.636;2022-09-01T08:38:52;23.87;54.13
70851;DHT22;58475;49.662;9.636;2022-09-01T08:46:40;24.58;53.73
70851;DHT22;58475;49.662;9.636;2022-09-01T08:49:09;24.14;53.32
70851;DHT22;58475;49.662;9.636;2022-09-01T08:52:35;25.19;52.82
70851;DHT22;58475;49.662;9.636;2022-09-01T08:57:54;26.01;50.91
70851;DHT22;58475;49.662;9.636;2022-09-01T09:00:27;25.75;49.67
70851;DHT22;58475;49.662;9.636;2022-09-01T09:06:02;26.08;50.91
70851;DHT22;58475;49.662;9.636;2022-09-01T09:14:12;26.35;48.80
70851;DHT22;58475;49.662;9.636;2022-09-01T09:16:44;26.02;48.95
70851;DHT22;58475;49.662;9.636;2022-09-01T09:19:18;25.37;49.85
70851;DHT22;58475;49.662;9.636;2022-09-01T09:21:47;26.25;48.07
70851;DHT22;58475;49.662;9.636;2022-09-01T09:24:29;25.16;51.43
70851;DHT22;58475;49.662;9.636;2022-09-01T09:27:22;26.66;49.38
70851;DHT22;58475;49.662;9.636;2022-09-01T09:29:57;26.98;48.95
70851;DHT22;58475;49.662;9.636;2022-09-01T09:32:41;26.88;47.35
70851;DHT22;58475;49.662;9.636;2022-09-01T09:37:48;26.83;47.84
70851;DHT22;58475;49.662;9.636;2022-09-01T09:40:16;25.88;48.53
70851;DHT22;58475;49.662;9.636;2022-09-01T09:45:38;24.88;50.16
70851;DHT22;58475;49.662;9.636;2022-09-01T09:48:09;25.13;50.28
70851;DHT22;58475;49.662;9.636;2022-09-01T09:50:50;24.96;50.94
70851;DHT22;58475;49.662;9.636;2022-09-01T09:53:27;24.89;51.34
70851;DHT22;58475;49.662;9.636;2022-09-01T09:56:02;25.03;50.16
70851;DHT22;58475;49.662;9.636;2022-09-01T09:58:36;24.37;51.29
70851;DHT22;58475;49.662;9.636;2022-09-01T10:01:27;24.28;51.20
70851;DHT22;58475;49.662;9.636;2022-09-01T10:03:58;24.78;49.62
70851;DHT22;58475;49.662;9.636;2022-09-01T10:09:15;24.65;48.94
70851;DHT22;58475;49.662;9.636;2022-09-01T10:11:43;24.64;49.15
70851;DHT22;58475;49.662;9.636;2022-09-01T10:14:19;24.90;50.34
70851;DHT22;58475;49.662;9.636;2022-09-01T10:16:47;24.86;49.80
70851;DHT22;58475;49.662;9.636;2022-09-01T10:19:14;25.23;49.45
70851;DHT22;58475;49.662;9.636;2022-09-01T10:21:41;25.28;49.59
70851;DHT22;58475;49.662;9.636;2022-09-01T10:24:18;25.10;49.38
70851;DHT22;58475;49.662;9.636;2022-09-01T10:26:45;25.07;49.87
70851;DHT22;58475;49.662;9.636;2022-09-01T10:29:23;24.89;48.43
70851;DHT22;58475;49.662;9.636;2022-09-01T10:31:53;25.09;48.75
70851;DHT22;58475;49.662;9.636;2022-09-01T10:34:21;25.80;48.12
70851;DHT22;58475;49.662;9.636;2022-09-01T10:36:47;25.22;48.52
70851;DHT22;58475;49.662;9.636;2022-09-01T10:39:16;24.45;47.08
70851;DHT22;58475;49.662;9.636;2022-09-01T10:41:49;24.20;49.35
70851;DHT22;58475;49.662;9.636;2022-09-01T10:44:36;23.83;49.12
70851;DHT22;58475;49.662;9.636;2022-09-01T10:51:56;23.67;48.53
70851;DHT22;58475;49.662;9.636;2022-09-01T10:57:04;25.22;46.24
70851;DHT22;58475;49.662;9.636;2022-09-01T10:59:32;26.14;46.34
70851;DHT22;58475;49.662;9.636;2022-09-01T11:15:39;26.39;41.85
70851;DHT22;58475;49.662;9.636;2022-09-01T11:18:14;25.48;42.68
70851;DHT22;58475;49.662;9.636;2022-09-01T11:20:41;24.59;44.39
70851;DHT22;58475;49.662;9.636;2022-09-01T11:23:25;24.71;44.01
70851;DHT22;58475;49.662;9.636;2022-09-01T11:25:56;24.54;45.63
70851;DHT22;58475;49.662;9.636;2022-09-01T11:33:37;24.48;45.22
70851;DHT22;58475;49.662;9.636;2022-09-01T11:36:26;24.20;44.79
70851;DHT22;58475;49.662;9.636;2022-09-01T11:39:07;25.15;43.44
70851;DHT22;58475;49.662;9.636;2022-09-01T11:41:48;25.64;41.43
70851;DHT22;58475;49.662;9.636;2022-09-01T11:44:25;25.41;42.68
70851;DHT22;58475;49.662;9.636;2022-09-01T11:46:56;25.43;43.10
70851;DHT22;58475;49.662;9.636;2022-09-01T11:49:25;24.72;43.38
70851;DHT22;58475;49.662;9.636;2022-09-01T11:51:51;24.35;44.38
70851;DHT22;58475;49.662;9.636;2022-09-01T11:54:17;24.96;43.76
70851;DHT22;58475;49.662;9.636;2022-09-01T11:56:42;26.25;41.59
70851;DHT22;58475;49.662;9.636;2022-09-01T11:59:08;27.37;40.70
70851;DHT22;58475;49.662;9.636;2022-09-01T12:01:38;26.86;40.91
70851;DHT22;58475;49.662;9.636;2022-09-01T12:04:31;26.40;41.45
70851;DHT22;58475;49.662;9.636;2022-09-01T12:07:04;25.91;40.88
70851;DHT22;58475;49.662;9.636;2022-09-01T12:09:36;26.93;39.72
70851;DHT22;58475;49.662;9.636;2022-09-01T12:12:04;26.55;42.04
70851;DHT22;58475;49.662;9.636;2022-09-01T12:14:29;27.45;40.53
70851;DHT22;58475;49.662;9.636;2022-09-01T12:17:04;27.69;39.33
70851;DHT22;58475;49.662;9.636;2022-09-01T12:19:33;28.41;40.53
70851;DHT22;58475;49.662;9.636;2022-09-01T12:22:11;28.04;38.81
70851;DHT22;58475;49.662;9.636;2022-09-01T12:24:44;28.00;37.95
70851;DHT22;58475;49.662;9.636;2022-09-01T12:27:10;28.13;38.76
70851;DHT22;58475;49.662;9.636;2022-09-01T12:29:36;28.78;38.52
70851;DHT22;58475;49.662;9.636;2022-09-01T12:32:03;27.85;37.86
70851;DHT22;58475;49.662;9.636;2022-09-01T12:34:43;28.41;39.06
70851;DHT22;58475;49.662;9.636;2022-09-01T12:39:43;27.66;37.06
70851;DHT22;58475;49.662;9.636;2022-09-01T12:42:22;27.27;37.84
70851;DHT22;58475;49.662;9.636;2022-09-01T12:44:54;27.07;37.35
70851;DHT22;58475;49.662;9.636;2022-09-01T12:55:22;28.76;38.38
70851;DHT22;58475;49.662;9.636;2022-09-01T12:57:53;27.45;40.46
70851;DHT22;58475;49.662;9.636;2022-09-01T13:00:21;27.30;38.69
70851;DHT22;58475;49.662;9.636;2022-09-01T13:07:52;28.39;37.95
70851;DHT22;58475;49.662;9.636;2022-09-01T13:10:19;27.27;40.94
70851;DHT22;58475;49.662;9.636;2022-09-01T13:12:45;26.86;40.49
70851;DHT22;58475;49.662;9.636;2022-09-01T13:15:11;26.84;41.42
70851;DHT22;58475;49.662;9.636;2022-09-01T13:17:37;26.79;41.23
70851;DHT22;58475;49.662;9.636;2022-09-01T13:20:06;27.65;39.85
70851;DHT22;58475;49.662;9.636;2022-09-01T13:22:33;28.13;38.68
70851;DHT22;58475;49.662;9.636;2022-09-01T13:24:59;28.58;38.35
70851;DHT22;58475;49.662;9.636;2022-09-01T13:27:25;28.65;38.12
70851;DHT22;58475;49.662;9.636;2022-09-01T13:29:50;28.04;38.50
70851;DHT22;58475;49.662;9.636;2022-09-01T13:32:17;28.13;38.16
70851;DHT22;58475;49.662;9.636;2022-09-01T13:34:43;28.23;37.55
70851;DHT22;58475;49.662;9.636;2022-09-01T13:37:08;27.28;38.12
70851;DHT22;58475;49.662;9.636;2022-09-01T13:39:33;27.30;38.99
70851;DHT22;58475;49.662;9.636;2022-09-01T13:41:59;26.94;38.94
70851;DHT22;58475;49.662;9.636;2022-09-01T13:44:24;26.97;40.25
70851;DHT22;58475;49.662;9.636;2022-09-01T13:46:50;26.97;40.18
70851;DHT22;58475;49.662;9.636;2022-09-01T13:49:15;26.95;40.88
70851;DHT22;58475;49.662;9.636;2022-09-01T13:51:40;26.84;40.41
70851;DHT22;58475;49.662;9.636;2022-09-01T13:54:06;26.50;40.77
70851;DHT22;58475;49.662;9.636;2022-09-01T13:56:31;26.31;40.50
70851;DHT22;58475;49.662;9.636;2022-09-01T13:58:57;26.39;40.15
70851;DHT22;58475;49.662;9.636;2022-09-01T14:01:22;26.37;41.17
70851;DHT22;58475;49.662;9.636;2022-09-01T14:03:48;26.47;40.87
70851;DHT22;58475;49.662;9.636;2022-09-01T14:06:14;27.41;40.04
70851;DHT22;58475;49.662;9.636;2022-09-01T14:08:40;27.25;39.32
70851;DHT22;58475;49.662;9.636;2022-09-01T14:11:05;26.74;38.59
70851;DHT22;58475;49.662;9.636;2022-09-01T14:13:31;26.60;38.91
70851;DHT22;58475;49.662;9.636;2022-09-01T14:15:58;26.59;39.42
70851;DHT22;58475;49.662;9.636;2022-09-01T14:18:24;26.64;39.19
70851;DHT22;58475;49.662;9.636;2022-09-01T14:21:01;26.57;39.77
70851;DHT22;58475;49.662;9.636;2022-09-01T14:23:27;26.66;38.93
70851;DHT22;58475;49.662;9.636;2022-09-01T14:25:53;27.11;38.69
70851;DHT22;58475;49.662;9.636;2022-09-01T14:28:20;26.50;38.48
70851;DHT22;58475;49.662;9.636;2022-09-01T14:30:47;26.26;39.40
70851;DHT22;58475;49.662;9.636;2022-09-01T14:33:13;26.29;40.47
70851;DHT22;58475;49.662;9.636;2022-09-01T14:35:40;25.98;39.63
70851;DHT22;58475;49.662;9.636;2022-09-01T14:38:05;25.73;40.62
70851;DHT22;58475;49.662;9.636;2022-09-01T14:40:34;25.74;42.55
70851;DHT22;58475;49.662;9.636;2022-09-01T14:43:02;25.40;42.50
70851;DHT22;58475;49.662;9.636;2022-09-01T14:45:29;24.88;43.24
70851;DHT22;58475;49.662;9.636;2022-09-01T14:47:56;25.07;43.09
70851;DHT22;58475;49.662;9.636;2022-09-01T14:50:23;24.92;43.49
70851;DHT22;58475;49.662;9.636;2022-09-01T14:52:52;24.78;42.43
70851;DHT22;58475;49.662;9.636;2022-09-01T14:55:17;25.05;43.47
70851;DHT22;58475;49.662;9.636;2022-09-01T14:57:43;25.15;42.54
70851;DHT22;58475;49.662;9.636;2022-09-01T15:00:10;25.26;42.03
70851;DHT22;58475;49.662;9.636;2022-09-01T15:02:41;24.89;42.72
70851;DHT22;58475;49.662;9.636;2022-09-01T15:05:07;25.02;42.24
70851;DHT22;58475;49.662;9.636;2022-09-01T15:07:33;25.20;42.75
70851;DHT22;58475;49.662;9.636;2022-09-01T15:09:58;25.60;42.50
70851;DHT22;58475;49.662;9.636;2022-09-01T15:12:24;25.26;41.69
70851;DHT22;58475;49.662;9.636;2022-09-01T15:14:55;25.89;40.62
70851;DHT22;58475;49.662;9.636;2022-09-01T15:17:20;25.96;40.38
70851;DHT22;58475;49.662;9.636;2022-09-01T15:19:46;25.63;41.31
70851;DHT22;58475;49.662;9.636;2022-09-01T15:22:11;25.68;41.65
70851;DHT22;58475;49.662;9.636;2022-09-01T15:24:38;25.47;42.63
70851;DHT22;58475;49.662;9.636;2022-09-01T15:27:04;25.02;41.27
70851;DHT22;58475;49.662;9.636;2022-09-01T15:29:31;24.76;41.77
70851;DHT22;58475;49.662;9.636;2022-09-01T15:31:58;24.82;41.43
70851;DHT22;58475;49.662;9.636;2022-09-01T15:34:24;24.73;42.15
70851;DHT22;58475;49.662;9.636;2022-09-01T15:36:49;24.67;43.31
70851;DHT22;58475;49.662;9.636;2022-09-01T15:39:14;24.80;42.52
70851;DHT22;58475;49.662;9.636;2022-09-01T15:41:42;24.71;44.00
70851;DHT22;58475;49.662;9.636;2022-09-01T15:44:08;24.75;43.70
70851;DHT22;58475;49.662;9.636;2022-09-01T15:46:35;25.23;41.19
70851;DHT22;58475;49.662;9.636;2022-09-01T15:49:05;25.31;40.61
70851;DHT22;58475;49.662;9.636;2022-09-01T15:54:18;25.85;40.08
70851;DHT22;58475;49.662;9.636;2022-09-01T15:56:44;26.05;41.08
70851;DHT22;58475;49.662;9.636;2022-09-01T15:59:10;25.85;39.94
70851;DHT22;58475;49.662;9.636;2022-09-01T16:01:39;25.60;40.73
70851;DHT22;58475;49.662;9.636;2022-09-01T16:04:07;25.27;42.13
70851;DHT22;58475;49.662;9.636;2022-09-01T16:06:33;25.34;41.47
70851;DHT22;58475;49.662;9.636;2022-09-01T16:08:59;25.64;41.20
70851;DHT22;58475;49.662;9.636;2022-09-01T16:11:24;25.48;41.09
70851;DHT22;58475;49.662;9.636;2022-09-01T16:13:51;25.94;39.64
70851;DHT22;58475;49.662;9.636;2022-09-01T16:16:48;25.82;39.47
70851;DHT22;58475;49.662;9.636;2022-09-01T16:22:29;25.46;40.06
70851;DHT22;58475;49.662;9.636;2022-09-01T16:24:59;25.54;39.42
70851;DHT22;58475;49.662;9.636;2022-09-01T16:27:31;25.19;39.61
70851;DHT22;58475;49.662;9.636;2022-09-01T16:30:01;25.06;40.74
70851;DHT22;58475;49.662;9.636;2022-09-01T16:32:27;24.78;41.03
70851;DHT22;58475;49.662;9.636;2022-09-01T16:34:53;24.65;41.33
70851;DHT22;58475;49.662;9.636;2022-09-01T16:40:08;25.06;42.38
70851;DHT22;58475;49.662;9.636;2022-09-01T16:45:10;24.39;43.02
70851;DHT22;58475;49.662;9.636;2022-09-01T16:50:35;24.49;43.55
70851;DHT22;58475;49.662;9.636;2022-09-01T16:53:07;24.44;44.20
70851;DHT22;58475;49.662;9.636;2022-09-01T16:56:09;24.08;44.30
70851;DHT22;58475;49.662;9.636;2022-09-01T16:59:02;23.84;45.39
70851;DHT22;58475;49.662;9.636;2022-09-01T17:10:08;23.53;45.18
70851;DHT22;58475;49.662;9.636;2022-09-01T17:12:41;23.23;46.39
70851;DHT22;58475;49.662;9.636;2022-09-01T17:15:32;23.11;46.11
70851;DHT22;58475;49.662;9.636;2022-09-01T17:20:58;22.90;46.74
70851;DHT22;58475;49.662;9.636;2022-09-01T17:23:29;23.05;45.79
70851;DHT22;58475;49.662;9.636;2022-09-01T17:26:12;23.01;46.12
70851;DHT22;58475;49.662;9.636;2022-09-01T17:28:55;22.84;46.72